createdAt,value
2022-12-20T00:01:54.586Z,8.30
2022-12-20T00:04:22.748Z,8.30
2022-12-20T00:06:50.867Z,8.30
2022-12-20T00:09:20.345Z,8.20
2022-12-20T00:11:48.844Z,8.30
2022-12-20T00:14:17.026Z,8.30
2022-12-20T00:16:45.108Z,8.20
2022-12-20T00:19:13.352Z,8.20
2022-12-20T00:21:41.402Z,8.30
2022-12-20T00:24:09.549Z,8.20
2022-12-20T00:26:39.833Z,8.30
2022-12-20T00:29:08.238Z,8.30
2022-12-20T00:31:36.364Z,8.20
2022-12-20T00:34:05.058Z,8.20
2022-12-20T00:36:34.182Z,8.20
2022-12-20T00:39:03.315Z,8.20
2022-12-20T00:41:35.581Z,8.20
2022-12-20T00:44:06.350Z,8.20
2022-12-20T00:46:35.579Z,8.20
2022-12-20T00:49:03.654Z,8.10
2022-12-20T00:51:32.934Z,8.20
2022-12-20T00:54:01.270Z,8.20
2022-12-20T00:56:29.570Z,8.20
2022-12-20T00:59:00.471Z,8.20
2022-12-20T01:01:33.181Z,8.20
2022-12-20T01:04:01.791Z,8.30
2022-12-20T01:06:32.126Z,8.30
2022-12-20T01:09:02.886Z,8.30
2022-12-20T01:11:33.915Z,8.40
2022-12-20T01:14:05.280Z,8.40
2022-12-20T01:16:40.623Z,8.50
2022-12-20T01:19:13.165Z,8.50
2022-12-20T01:21:44.703Z,8.60
2022-12-20T01:24:13.692Z,8.60
2022-12-20T01:26:45.820Z,8.60
2022-12-20T01:29:15.360Z,8.70
2022-12-20T01:31:45.937Z,8.80
2022-12-20T01:34:14.144Z,8.80
2022-12-20T01:36:42.525Z,8.80
2022-12-20T01:39:14.813Z,8.80
2022-12-20T01:41:45.308Z,8.80
2022-12-20T01:45:08.767Z,8.80
2022-12-20T01:47:39.205Z,8.80
2022-12-20T01:50:10.395Z,8.80
2022-12-20T01:52:44.414Z,8.80
2022-12-20T01:55:19.806Z,8.80
2022-12-20T01:57:54.132Z,8.70
2022-12-20T02:00:24.092Z,8.70
2022-12-20T02:02:54.176Z,8.70
2022-12-20T02:05:24.661Z,8.60
2022-12-20T02:07:57.670Z,8.60
2022-12-20T02:10:40.465Z,8.60
2022-12-20T02:13:20.720Z,8.60
2022-12-20T02:15:56.079Z,8.50
2022-12-20T02:18:34.367Z,8.40
2022-12-20T02:21:27.933Z,8.30
2022-12-20T02:24:41.529Z,8.30
2022-12-20T02:27:35.863Z,8.30
2022-12-20T02:30:11.688Z,8.30
2022-12-20T02:32:49.655Z,8.20
2022-12-20T02:35:24.393Z,8.20
2022-12-20T02:37:54.899Z,8.20
2022-12-20T02:40:28.474Z,8.20
2022-12-20T02:43:02.301Z,8.20
2022-12-20T02:45:36.092Z,8.20
2022-12-20T02:48:09.538Z,8.20
2022-12-20T02:50:44.552Z,8.20
2022-12-20T02:53:15.893Z,8.20
2022-12-20T02:55:53.737Z,8.10
2022-12-20T02:58:30.808Z,8.20
2022-12-20T03:01:09.648Z,8.20
2022-12-20T03:03:38.736Z,8.10
2022-12-20T03:06:08.355Z,8.10
2022-12-20T03:08:36.988Z,8.10
2022-12-20T03:11:05.123Z,8.10
2022-12-20T03:13:33.932Z,8.10
2022-12-20T03:16:10.674Z,8.10
2022-12-20T03:18:39.560Z,8.20
2022-12-20T03:21:07.902Z,8.30
2022-12-20T03:23:36.292Z,8.40
2022-12-20T03:26:05.424Z,8.40
2022-12-20T03:28:38.483Z,8.40
2022-12-20T03:31:09.477Z,8.50
2022-12-20T03:33:45.277Z,8.50
2022-12-20T03:36:13.422Z,8.60
2022-12-20T03:38:42.213Z,8.60
2022-12-20T03:41:10.248Z,8.70
2022-12-20T03:43:38.681Z,8.70
2022-12-20T03:46:07.252Z,8.70
2022-12-20T03:48:40.746Z,8.70
2022-12-20T03:51:11.276Z,8.60
2022-12-20T03:53:39.698Z,8.50
2022-12-20T03:56:08.246Z,8.40
2022-12-20T03:58:37.337Z,8.40
2022-12-20T04:01:20.033Z,8.40
2022-12-20T04:03:51.026Z,8.40
2022-12-20T04:06:20.559Z,8.40
2022-12-20T04:08:49.342Z,8.50
2022-12-20T04:11:24.827Z,8.60
2022-12-20T04:13:57.884Z,8.60
2022-12-20T04:16:30.907Z,8.60
2022-12-20T04:19:00.507Z,8.70
2022-12-20T04:21:35.999Z,8.70
2022-12-20T04:24:07.182Z,8.70
2022-12-20T04:27:04.839Z,8.70
2022-12-20T04:29:33.444Z,8.70
2022-12-20T04:32:02.006Z,8.70
2022-12-20T04:34:31.932Z,8.60
2022-12-20T04:37:00.584Z,8.60
2022-12-20T04:39:40.388Z,8.60
2022-12-20T04:42:20.897Z,8.60
2022-12-20T04:44:50.201Z,8.60
2022-12-20T04:47:23.591Z,8.60
2022-12-20T04:49:53.686Z,8.70
2022-12-20T04:52:45.534Z,8.60
2022-12-20T04:55:15.779Z,8.70
2022-12-20T04:57:43.891Z,8.70
2022-12-20T05:00:15.324Z,8.80
2022-12-20T05:02:45.999Z,8.80
2022-12-20T05:05:18.961Z,8.80
2022-12-20T05:07:52.231Z,8.90
2022-12-20T05:10:20.450Z,8.90
2022-12-20T05:12:49.401Z,8.90
2022-12-20T05:15:26.532Z,8.90
2022-12-20T05:17:59.369Z,8.90
2022-12-20T05:20:34.036Z,8.90
2022-12-20T05:23:21.047Z,8.90
2022-12-20T05:26:12.073Z,8.90
2022-12-20T05:28:41.043Z,8.90
2022-12-20T05:31:09.397Z,8.90
2022-12-20T05:33:37.930Z,8.90
2022-12-20T05:36:09.166Z,8.90
2022-12-20T05:38:40.928Z,8.90
2022-12-20T05:41:15.843Z,8.90
2022-12-20T05:43:47.107Z,8.80
2022-12-20T05:46:15.609Z,8.80
2022-12-20T05:48:54.150Z,8.80
2022-12-20T05:51:23.872Z,8.80
2022-12-20T05:54:00.703Z,8.80
2022-12-20T05:56:42.913Z,8.90
2022-12-20T05:59:10.941Z,8.90
2022-12-20T06:01:39.458Z,9.00
2022-12-20T06:04:07.720Z,9.00
2022-12-20T06:06:37.318Z,9.10
2022-12-20T06:09:08.163Z,9.10
2022-12-20T06:11:47.517Z,9.10
2022-12-20T06:14:16.383Z,9.10
2022-12-20T06:16:47.319Z,9.10
2022-12-20T06:19:21.659Z,9.10
2022-12-20T06:21:53.256Z,9.10
2022-12-20T06:24:28.378Z,9.20
2022-12-20T06:26:56.532Z,9.20
2022-12-20T06:29:26.866Z,9.20
2022-12-20T06:32:02.541Z,9.30
2022-12-20T06:34:31.243Z,9.30
2022-12-20T06:37:00.671Z,9.30
2022-12-20T06:39:32.069Z,9.30
2022-12-20T06:42:09.093Z,9.30
2022-12-20T06:44:38.215Z,9.40
2022-12-20T06:47:06.382Z,9.40
2022-12-20T06:49:34.609Z,9.40
2022-12-20T06:52:08.433Z,9.50
2022-12-20T06:54:47.068Z,9.50
2022-12-20T06:57:15.546Z,9.50
2022-12-20T06:59:45.988Z,9.50
2022-12-20T07:02:14.610Z,9.50
2022-12-20T07:04:43.048Z,9.50
2022-12-20T07:07:13.829Z,9.50
2022-12-20T07:09:42.966Z,9.50
2022-12-20T07:12:12.335Z,9.50
2022-12-20T07:14:40.435Z,9.50
2022-12-20T07:17:09.260Z,9.50
2022-12-20T07:19:37.668Z,9.50
2022-12-20T07:22:06.841Z,9.50
2022-12-20T07:24:36.234Z,9.50
2022-12-20T07:27:04.353Z,9.50
2022-12-20T07:29:32.766Z,9.60
2022-12-20T07:32:00.889Z,9.60
2022-12-20T07:34:29.035Z,9.60
2022-12-20T07:36:57.121Z,9.60
2022-12-20T07:39:25.229Z,9.50
2022-12-20T07:41:57.997Z,9.50
2022-12-20T07:44:26.410Z,9.50
2022-12-20T07:46:54.439Z,9.50
2022-12-20T07:49:23.023Z,9.50
2022-12-20T07:51:56.419Z,9.40
2022-12-20T07:54:31.191Z,9.40
2022-12-20T07:57:08.303Z,9.40
2022-12-20T07:59:42.626Z,9.40
2022-12-20T08:02:18.605Z,9.40
2022-12-20T08:04:47.824Z,9.40
2022-12-20T08:07:17.288Z,9.40
2022-12-20T08:09:47.042Z,9.40
2022-12-20T08:12:19.880Z,9.40
2022-12-20T08:14:48.202Z,9.40
2022-12-20T08:17:16.294Z,9.40
2022-12-20T08:19:44.347Z,9.40
2022-12-20T08:22:12.702Z,9.40
2022-12-20T08:24:40.711Z,9.40
2022-12-20T08:27:09.822Z,9.40
2022-12-20T08:29:39.279Z,9.30
2022-12-20T08:32:07.346Z,9.40
2022-12-20T08:34:35.708Z,9.40
2022-12-20T08:37:07.762Z,9.40
2022-12-20T08:39:39.084Z,9.40
2022-12-20T08:42:07.344Z,9.50
2022-12-20T08:44:35.406Z,9.60
2022-12-20T08:47:05.644Z,9.80
2022-12-20T08:49:33.901Z,10.00
2022-12-20T08:52:01.967Z,10.00
2022-12-20T08:54:30.346Z,10.00
2022-12-20T08:56:58.512Z,10.00
2022-12-20T08:59:26.662Z,9.90
2022-12-20T09:01:55.266Z,9.90
2022-12-20T09:04:24.831Z,9.80
2022-12-20T09:06:52.860Z,9.80
2022-12-20T09:09:20.880Z,9.80
2022-12-20T09:11:49.017Z,9.80
2022-12-20T09:14:17.205Z,9.80
2022-12-20T09:16:45.220Z,9.80
2022-12-20T09:19:15.252Z,9.80
2022-12-20T09:21:45.026Z,9.80
2022-12-20T09:24:13.004Z,9.90
2022-12-20T09:26:41.698Z,9.90
2022-12-20T09:29:09.664Z,9.90
2022-12-20T09:31:38.566Z,10.00
2022-12-20T09:34:06.915Z,10.10
2022-12-20T09:36:34.962Z,10.10
2022-12-20T09:39:04.437Z,10.10
2022-12-20T09:41:40.210Z,10.10
2022-12-20T09:44:19.865Z,10.00
2022-12-20T09:46:56.750Z,10.00
2022-12-20T09:49:30.887Z,10.00
2022-12-20T09:52:25.416Z,10.10
2022-12-20T09:55:07.832Z,10.10
2022-12-20T09:57:54.106Z,10.10
2022-12-20T10:00:23.142Z,10.10
2022-12-20T10:03:02.168Z,10.10
2022-12-20T10:05:47.171Z,10.10
2022-12-20T10:08:26.371Z,10.10
2022-12-20T10:11:00.432Z,10.20
2022-12-20T10:13:54.086Z,10.20
2022-12-20T10:16:42.169Z,10.20
2022-12-20T10:19:29.710Z,10.30
2022-12-20T10:22:09.175Z,10.30
2022-12-20T10:24:46.311Z,10.30
2022-12-20T10:27:20.728Z,10.30
2022-12-20T10:29:51.705Z,10.30
2022-12-20T10:32:24.209Z,10.30
2022-12-20T10:35:17.723Z,10.30
2022-12-20T10:38:09.170Z,10.40
2022-12-20T10:43:44.103Z,10.40
2022-12-20T10:46:16.598Z,10.50
2022-12-20T10:48:47.627Z,10.40
2022-12-20T10:51:19.703Z,10.40
2022-12-20T10:53:58.217Z,10.50
2022-12-20T10:56:29.424Z,10.60
2022-12-20T10:59:02.204Z,10.60
2022-12-20T11:01:34.409Z,10.70
2022-12-20T11:04:05.164Z,10.70
2022-12-20T11:06:46.161Z,10.70
2022-12-20T11:09:27.628Z,10.70
2022-12-20T11:12:05.812Z,10.80
2022-12-20T11:14:39.873Z,10.80
2022-12-20T11:17:33.606Z,10.90
2022-12-20T11:20:30.507Z,11.00
2022-12-20T11:23:15.381Z,11.10
2022-12-20T11:26:07.618Z,11.10
2022-12-20T11:28:55.055Z,11.20
2022-12-20T11:31:42.783Z,11.20
2022-12-20T11:34:26.019Z,11.90
2022-12-20T11:37:18.101Z,11.20
2022-12-20T11:40:07.377Z,11.10
2022-12-20T11:43:01.423Z,11.10
2022-12-20T11:45:41.743Z,11.10
2022-12-20T11:48:51.405Z,11.20
2022-12-20T11:51:26.908Z,11.20
2022-12-20T11:54:03.998Z,11.20
2022-12-20T11:56:43.902Z,11.20
2022-12-20T11:59:23.257Z,11.20
2022-12-20T12:01:58.815Z,11.30
2022-12-20T12:04:35.260Z,11.20
2022-12-20T12:07:12.557Z,11.20
2022-12-20T12:09:48.888Z,11.20
2022-12-20T12:12:29.400Z,11.20
2022-12-20T12:15:09.879Z,11.20
2022-12-20T12:17:49.449Z,11.20
2022-12-20T12:20:32.498Z,11.20
2022-12-20T12:23:11.912Z,11.20
2022-12-20T12:25:39.979Z,11.30
2022-12-20T12:28:13.941Z,11.30
2022-12-20T12:30:49.029Z,11.30
2022-12-20T12:33:25.832Z,11.30
2022-12-20T12:36:40.071Z,11.30
2022-12-20T12:39:44.422Z,11.30
2022-12-20T12:42:51.104Z,11.40
2022-12-20T12:45:27.156Z,11.40
2022-12-20T12:48:01.991Z,11.40
2022-12-20T12:50:37.927Z,11.30
2022-12-20T12:53:13.996Z,11.30
2022-12-20T12:55:46.529Z,11.30
2022-12-20T12:58:31.777Z,11.20
2022-12-20T13:01:03.219Z,11.20
2022-12-20T13:03:47.238Z,11.10
2022-12-20T13:07:22.147Z,11.00
2022-12-20T13:09:51.610Z,10.90
2022-12-20T13:12:58.864Z,10.90
2022-12-20T13:16:27.405Z,10.80
2022-12-20T13:19:17.017Z,10.80
2022-12-20T13:21:48.311Z,10.80
2022-12-20T13:24:57.237Z,10.80
2022-12-20T13:27:39.095Z,10.70
2022-12-20T13:30:29.619Z,10.70
2022-12-20T13:33:38.945Z,10.70
2022-12-20T13:36:39.215Z,10.70
2022-12-20T13:39:35.348Z,10.70
2022-12-20T13:42:38.046Z,10.80
2022-12-20T13:45:14.352Z,10.80
2022-12-20T13:47:49.312Z,10.80
2022-12-20T13:50:33.015Z,10.80
2022-12-20T13:53:01.129Z,10.80
2022-12-20T13:55:37.476Z,10.90
2022-12-20T13:58:17.360Z,10.80
2022-12-20T14:00:47.599Z,10.90
2022-12-20T14:03:24.639Z,10.90
2022-12-20T14:05:59.415Z,10.90
2022-12-20T14:08:33.087Z,10.90
2022-12-20T14:11:13.382Z,10.90
2022-12-20T14:13:43.386Z,10.90
2022-12-20T14:16:16.933Z,10.90
2022-12-20T14:18:50.408Z,10.80
2022-12-20T14:21:20.025Z,10.80
2022-12-20T14:23:52.930Z,10.80
2022-12-20T14:26:25.739Z,10.80
2022-12-20T14:28:58.013Z,10.80
2022-12-20T14:31:31.015Z,10.80
2022-12-20T14:34:13.150Z,10.80
2022-12-20T14:36:44.158Z,10.80
2022-12-20T14:39:27.791Z,10.90
2022-12-20T14:42:00.954Z,10.80
2022-12-20T14:44:32.384Z,10.80
2022-12-20T14:47:03.462Z,10.80
2022-12-20T14:49:34.248Z,10.80
2022-12-20T14:52:16.249Z,10.80
2022-12-20T14:57:45.360Z,10.80
2022-12-20T15:00:25.357Z,10.80
2022-12-20T15:03:02.777Z,10.70
2022-12-20T15:05:45.358Z,10.70
2022-12-20T15:08:15.999Z,10.70
2022-12-20T15:10:51.301Z,10.60
2022-12-20T15:13:22.507Z,10.60
2022-12-20T15:15:52.063Z,10.60
2022-12-20T15:18:22.455Z,10.60
2022-12-20T15:21:02.931Z,10.60
2022-12-20T15:23:31.409Z,11.40
2022-12-20T15:25:59.636Z,10.60
2022-12-20T15:28:28.538Z,10.60
2022-12-20T15:30:58.144Z,10.60
2022-12-20T15:33:31.703Z,10.60
2022-12-20T15:35:59.850Z,10.60
2022-12-20T15:41:25.607Z,10.60
2022-12-20T15:43:58.317Z,10.60
2022-12-20T15:46:28.291Z,10.60
2022-12-20T15:48:56.427Z,10.60
2022-12-20T15:51:31.100Z,10.60
2022-12-20T15:54:00.593Z,10.60
2022-12-20T15:56:30.007Z,10.50
2022-12-20T15:58:58.325Z,10.50
2022-12-20T16:01:40.489Z,10.50
2022-12-20T16:04:15.552Z,10.50
2022-12-20T16:06:44.019Z,10.50
2022-12-20T16:09:12.149Z,10.50
2022-12-20T16:11:40.873Z,10.50
2022-12-20T16:14:16.339Z,10.40
2022-12-20T16:16:47.677Z,10.40
2022-12-20T16:19:16.444Z,10.40
2022-12-20T16:21:49.513Z,10.40
2022-12-20T16:24:20.487Z,10.40
2022-12-20T16:26:50.333Z,10.40
2022-12-20T16:29:18.588Z,10.40
2022-12-20T16:31:48.116Z,10.30
2022-12-20T16:34:18.652Z,10.30
2022-12-20T16:36:47.676Z,10.40
2022-12-20T16:39:15.944Z,10.40
2022-12-20T16:41:44.867Z,10.30
2022-12-20T16:44:16.268Z,10.40
2022-12-20T16:46:45.582Z,10.40
2022-12-20T16:49:20.044Z,10.40
2022-12-20T16:51:50.694Z,10.40
2022-12-20T16:54:22.229Z,10.40
2022-12-20T16:56:55.452Z,10.30
2022-12-20T16:59:23.871Z,10.30
2022-12-20T17:01:55.543Z,10.30
2022-12-20T17:04:27.192Z,10.30
2022-12-20T17:06:55.328Z,10.30
2022-12-20T17:09:23.200Z,10.30
2022-12-20T17:11:51.463Z,10.30
2022-12-20T17:14:19.818Z,10.30
2022-12-20T17:16:48.015Z,10.30
2022-12-20T17:19:16.286Z,10.30
2022-12-20T17:24:35.060Z,10.20
2022-12-20T17:27:03.101Z,10.20
2022-12-20T17:29:30.972Z,10.10
2022-12-20T17:31:58.907Z,10.10
2022-12-20T17:34:30.111Z,10.10
2022-12-20T17:36:59.847Z,10.10
2022-12-20T17:39:28.021Z,10.10
2022-12-20T17:41:56.731Z,10.10
2022-12-20T17:44:27.863Z,10.10
2022-12-20T17:46:58.080Z,10.00
2022-12-20T17:49:26.035Z,10.00
2022-12-20T17:51:54.913Z,10.00
2022-12-20T17:54:26.895Z,10.00
2022-12-20T17:56:56.423Z,10.00
2022-12-20T17:59:25.821Z,10.00
2022-12-20T18:01:54.259Z,10.00
2022-12-20T18:04:22.697Z,10.00
2022-12-20T18:06:52.134Z,10.00
2022-12-20T18:09:22.509Z,10.00
2022-12-20T18:11:51.721Z,10.00
2022-12-20T18:14:19.587Z,9.90
2022-12-20T18:16:47.526Z,10.00
2022-12-20T18:19:18.608Z,9.90
2022-12-20T18:21:46.617Z,9.90
2022-12-20T18:24:16.588Z,9.90
2022-12-20T18:26:46.106Z,9.90
2022-12-20T18:29:15.517Z,9.90
2022-12-20T18:31:49.656Z,9.80
2022-12-20T18:34:20.668Z,9.80
2022-12-20T18:36:48.667Z,9.80
2022-12-20T18:39:17.527Z,9.80
2022-12-20T18:41:45.715Z,9.80
2022-12-20T18:44:15.427Z,9.90
2022-12-20T18:46:43.307Z,9.90
2022-12-20T18:49:11.261Z,9.90
2022-12-20T18:51:39.450Z,9.80
2022-12-20T18:54:09.395Z,9.90
2022-12-20T18:56:40.556Z,9.80
2022-12-20T18:59:13.089Z,9.80
2022-12-20T19:01:44.331Z,9.90
2022-12-20T19:04:20.789Z,9.90
2022-12-20T19:06:52.189Z,9.90
2022-12-20T19:09:20.073Z,9.80
2022-12-20T19:11:53.076Z,9.80
2022-12-20T19:14:24.382Z,9.80
2022-12-20T19:16:53.786Z,9.80
2022-12-20T19:19:21.842Z,9.80
2022-12-20T19:21:49.873Z,9.80
2022-12-20T19:24:17.776Z,9.80
2022-12-20T19:26:45.687Z,9.80
2022-12-20T19:29:13.558Z,9.80
2022-12-20T19:31:41.557Z,9.80
2022-12-20T19:34:13.724Z,9.70
2022-12-20T19:36:44.700Z,9.70
2022-12-20T19:39:17.278Z,9.80
2022-12-20T19:42:06.765Z,9.70
2022-12-20T19:44:33.593Z,9.80
2022-12-20T19:47:04.454Z,9.90
2022-12-20T19:49:34.296Z,9.90
2022-12-20T19:52:02.167Z,9.90
2022-12-20T19:54:30.065Z,9.90
2022-12-20T19:56:58.596Z,9.90
2022-12-20T19:59:26.579Z,9.90
2022-12-20T20:01:54.548Z,9.80
2022-12-20T20:04:22.919Z,9.80
2022-12-20T20:06:52.111Z,9.80
2022-12-20T20:09:20.030Z,9.80
2022-12-20T20:11:47.911Z,9.80
2022-12-20T20:14:15.761Z,9.80
2022-12-20T20:16:43.897Z,9.80
2022-12-20T20:19:11.909Z,9.80
2022-12-20T20:21:40.735Z,9.80
2022-12-20T20:24:10.290Z,9.80
2022-12-20T20:26:38.223Z,9.90
2022-12-20T20:29:07.090Z,9.80
2022-12-20T20:31:35.125Z,9.80
2022-12-20T20:34:03.166Z,9.80
2022-12-20T20:36:31.065Z,9.80
2022-12-20T20:38:58.975Z,9.80
2022-12-20T20:41:28.289Z,9.80
2022-12-20T20:43:56.254Z,9.70
2022-12-20T20:46:24.181Z,9.70
2022-12-20T20:48:52.137Z,9.60
2022-12-20T20:51:20.128Z,9.60
2022-12-20T20:53:48.004Z,9.50
2022-12-20T20:56:15.882Z,9.50
2022-12-20T20:58:45.196Z,9.50
2022-12-20T21:01:13.148Z,9.50
2022-12-20T21:03:41.160Z,9.50
2022-12-20T21:08:57.639Z,9.50
2022-12-20T21:11:26.048Z,9.50
2022-12-20T21:13:56.591Z,9.40
2022-12-20T21:16:24.627Z,9.30
2022-12-20T21:18:53.860Z,9.30
2022-12-20T21:21:22.355Z,9.40
2022-12-20T21:23:50.648Z,9.40
2022-12-20T21:26:21.173Z,9.40
2022-12-20T21:28:49.455Z,9.40
2022-12-20T21:31:21.557Z,9.40
2022-12-20T21:33:49.758Z,9.30
2022-12-20T21:36:20.454Z,9.20
2022-12-20T21:38:50.106Z,9.20
2022-12-20T21:41:19.946Z,9.20
2022-12-20T21:43:48.085Z,9.10
2022-12-20T21:46:16.772Z,9.10
2022-12-20T21:48:46.913Z,9.10
2022-12-20T21:51:18.380Z,9.10
2022-12-20T21:53:49.908Z,9.00
2022-12-20T21:56:20.013Z,9.10
2022-12-20T21:58:48.981Z,9.10
2022-12-20T22:01:21.730Z,9.10
2022-12-20T22:03:53.619Z,9.10
2022-12-20T22:06:22.569Z,9.10
2022-12-20T22:08:50.807Z,9.00
2022-12-20T22:11:20.057Z,9.00
2022-12-20T22:13:48.460Z,8.90
2022-12-20T22:16:19.428Z,9.00
2022-12-20T22:18:53.065Z,9.00
2022-12-20T22:21:23.441Z,8.90
2022-12-20T22:23:51.829Z,8.90
2022-12-20T22:26:22.684Z,8.90
2022-12-20T22:28:56.145Z,8.90
2022-12-20T22:31:25.948Z,8.80
2022-12-20T22:33:57.240Z,8.90
2022-12-20T22:36:25.512Z,7.60
2022-12-20T22:38:54.621Z,8.80
2022-12-20T22:41:25.271Z,8.80
2022-12-20T22:43:53.783Z,8.80
2022-12-20T22:46:22.308Z,8.80
2022-12-20T22:48:50.278Z,8.80
2022-12-20T22:51:22.336Z,8.70
2022-12-20T22:53:51.013Z,8.70
2022-12-20T22:56:21.614Z,8.70
2022-12-20T22:58:50.745Z,8.70
2022-12-20T23:01:21.243Z,8.60
2022-12-20T23:03:50.514Z,8.60
2022-12-20T23:06:21.911Z,8.60
2022-12-20T23:08:50.773Z,8.60
2022-12-20T23:11:39.808Z,8.50
2022-12-20T23:14:30.206Z,8.60
2022-12-20T23:16:58.181Z,8.50
2022-12-20T23:19:26.062Z,8.50
2022-12-20T23:22:12.623Z,8.50
2022-12-20T23:24:40.486Z,8.50
2022-12-20T23:27:08.443Z,8.50
2022-12-20T23:29:36.289Z,8.50
2022-12-20T23:32:04.265Z,8.50
2022-12-20T23:34:32.133Z,8.50
2022-12-20T23:37:01.357Z,8.50
2022-12-20T23:39:29.217Z,8.50
2022-12-20T23:41:57.125Z,8.50
2022-12-20T23:44:24.983Z,8.50
2022-12-20T23:46:52.866Z,8.50
2022-12-20T23:49:20.724Z,8.50
2022-12-20T23:51:48.578Z,8.60
2022-12-20T23:54:19.524Z,8.60
2022-12-20T23:56:47.501Z,8.60
2022-12-20T23:59:16.703Z,8.60
